Time;durP1;ratioP1;P1;durP2;ratioP2;P2;SDS_P1;SDS_P2;PMS_P1;PMS_P2;Temp;Humidity;BMP_temperature;BMP_pressure;BME280_temperature;BME280_humidity;BME280_pressure;Samples;Min_cycle;Max_cycle;Signal;HPM_P1;HPM_P2
2021/05/18 00:01:08;;;;;;;;;;;;;;;12.70;96.42;98152.97;3455543;28;20051;-43
2021/05/18 00:02:50;;;;;;;;;;;;;;;12.68;96.44;98144.34;3455067;28;19929;-43
2021/05/18 00:04:31;;;;;;;;;;;;;;;12.66;96.58;98145.22;3455552;28;19975;-42
2021/05/18 00:06:12;;;;;;;;;;;;;;;12.65;96.63;98143.53;3454140;28;19936;-43
2021/05/18 00:07:57;;;;;;;;;;;;;;;12.63;96.69;98148.75;3455755;28;19979;-43
2021/05/18 00:11:43;;;;;;;;;;;;;;;12.59;96.39;98152.28;3455008;28;19965;-53
2021/05/18 00:13:25;;;;;;;;;;;;;;;12.58;96.45;98153.19;3453762;28;19933;-50
2021/05/18 00:15:09;;;;;;;;;;;;;;;12.58;96.81;98146.25;3454037;28;19929;-51
2021/05/18 00:16:51;;;;;;;;;;;;;;;12.59;96.59;98152.28;3455437;28;20311;-43
2021/05/18 00:18:33;;;;;;;;;;;;;;;12.58;96.62;98150.59;3454414;28;19969;-44
2021/05/18 00:20:17;;;;;;;;;;;;;;;12.58;96.45;98137.59;3455715;28;19973;-43
2021/05/18 00:21:58;;;;;;;;;;;;;;;12.60;96.65;98142.75;3454695;28;19936;-43
2021/05/18 00:23:40;;;;;;;;;;;;;;;12.59;96.67;98131.47;3454881;28;20203;-43
2021/05/18 00:25:21;;;;;;;;;;;;;;;12.60;96.63;98140.16;3455705;28;19936;-43
2021/05/18 00:27:04;;;;;;;;;;;;;;;12.60;96.56;98135.81;3453908;28;20386;-43
2021/05/18 00:28:45;;;;;;;;;;;;;;;12.58;96.45;98132.38;3454914;28;19936;-42
2021/05/18 00:30:26;;;;;;;;;;;;;;;12.59;96.50;98134.09;3454875;28;19937;-49
2021/05/18 00:32:07;;;;;;;;;;;;;;;12.58;96.74;98134.97;3454430;28;19930;-53
2021/05/18 00:33:49;;;;;;;;;;;;;;;12.58;96.83;98137.59;3455320;28;19930;-42
2021/05/18 00:35:31;;;;;;;;;;;;;;;12.58;96.77;98137.59;3454238;28;20670;-48
2021/05/18 00:37:12;;;;;;;;;;;;;;;12.56;96.65;98132.41;3455596;28;19972;-43
2021/05/18 00:38:53;;;;;;;;;;;;;;;12.57;96.74;98133.25;3453907;28;20306;-43
2021/05/18 00:40:35;;;;;;;;;;;;;;;12.54;96.37;98134.19;3455718;28;19976;-43
2021/05/18 00:42:17;;;;;;;;;;;;;;;12.53;96.57;98135.06;3457965;28;19972;-43
2021/05/18 00:43:58;;;;;;;;;;;;;;;12.53;96.37;98139.41;3458890;28;20306;-43
2021/05/18 00:45:40;;;;;;;;;;;;;;;12.52;96.37;98140.28;3457997;28;19977;-49
2021/05/18 00:47:24;;;;;;;;;;;;;;;12.52;96.36;98135.97;3457707;28;19965;-49
2021/05/18 00:49:06;;;;;;;;;;;;;;;12.51;96.32;98131.63;3457417;28;19936;-47
2021/05/18 00:50:49;;;;;;;;;;;;;;;12.52;96.37;98133.38;3456833;28;19929;-43
2021/05/18 00:52:30;;;;;;;;;;;;;;;12.52;96.61;98125.56;3458261;28;20429;-42
2021/05/18 00:54:19;;;;;;;;;;;;;;;12.51;96.47;98123.00;3458291;28;19936;-49
2021/05/18 00:56:03;;;;;;;;;;;;;;;12.49;96.43;98120.41;3457623;28;19933;-51
2021/05/18 00:59:43;;;;;;;;;;;;;;;12.48;96.63;98115.22;3443753;28;19930;-43
2021/05/18 01:01:24;;;;;;;;;;;;;;;12.46;96.60;98112.66;3457573;28;19933;-50
2021/05/18 01:03:05;;;;;;;;;;;;;;;12.46;96.74;98111.81;3456679;28;19929;-49
2021/05/18 01:04:47;;;;;;;;;;;;;;;12.44;96.33;98124.00;3457012;28;20407;-48
2021/05/18 01:06:29;;;;;;;;;;;;;;;12.43;96.50;98117.06;3457453;28;19929;-43
2021/05/18 01:08:11;;;;;;;;;;;;;;;12.43;96.39;98117.91;3457066;28;19940;-50
2021/05/18 01:09:52;;;;;;;;;;;;;;;12.43;96.36;98120.50;3457838;28;19937;-43
2021/05/18 01:11:34;;;;;;;;;;;;;;;12.44;96.35;98121.38;3456626;28;20386;-43
2021/05/18 01:13:14;;;;;;;;;;;;;;;12.43;96.18;98111.84;3456426;28;19983;-50
2021/05/18 01:14:56;;;;;;;;;;;;;;;12.42;96.57;98118.81;3457639;28;20027;-43
2021/05/18 01:16:38;;;;;;;;;;;;;;;12.42;96.61;98113.63;3456660;28;20322;-50
2021/05/18 01:18:19;;;;;;;;;;;;;;;12.42;96.51;98113.63;3457652;28;19929;-43
2021/05/18 01:20:08;;;;;;;;;;;;;;;12.40;96.50;98120.59;3457004;28;19941;-43
2021/05/18 01:21:50;;;;;;;;;;;;;;;12.40;96.51;98120.59;3458090;28;20299;-50
2021/05/18 01:23:32;;;;;;;;;;;;;;;12.37;96.38;98128.44;3457261;28;19976;-49
2021/05/18 01:25:14;;;;;;;;;;;;;;;12.32;96.18;98114.66;3457496;28;19936;-42
2021/05/18 01:26:56;;;;;;;;;;;;;;;12.29;96.17;98112.13;3456859;28;19952;-48
2021/05/18 01:28:37;;;;;;;;;;;;;;;12.24;96.00;98107.03;3457010;28;19972;-43
2021/05/18 01:30:18;;;;;;;;;;;;;;;12.22;96.02;98111.38;3457242;28;20299;-42
2021/05/18 01:32:00;;;;;;;;;;;;;;;12.16;95.89;98109.75;3456596;28;19929;-44
2021/05/18 01:33:41;;;;;;;;;;;;;;;12.12;96.13;98108.09;3457559;28;19930;-49
2021/05/18 01:35:23;;;;;;;;;;;;;;;12.08;96.03;98111.63;3457360;28;20068;-49
2021/05/18 01:37:05;;;;;;;;;;;;;;;12.04;95.82;98109.94;3457715;28;20347;-52
2021/05/18 01:38:53;;;;;;;;;;;;;;;12.03;96.28;98108.25;3456161;28;19933;-43
2021/05/18 01:42:47;;;;;;;;;;;;;;;11.98;96.13;98107.47;3443575;28;20354;-43
2021/05/18 01:44:28;;;;;;;;;;;;;;;11.97;96.20;98105.75;3457201;28;19980;-43
2021/05/18 01:46:09;;;;;;;;;;;;;;;11.95;96.34;98100.56;3456170;28;20383;-43
2021/05/18 01:47:52;;;;;;;;;;;;;;;11.91;96.10;98103.28;3456295;28;19940;-43
2021/05/18 01:49:33;;;;;;;;;;;;;;;11.84;95.63;98091.28;3455670;28;20399;-43
2021/05/18 01:51:15;;;;;;;;;;;;;;;11.77;95.38;98093.97;3456730;28;19969;-49
2021/05/18 01:52:57;;;;;;;;;;;;;;;11.75;95.76;98092.28;3457370;28;19933;-50
2021/05/18 01:54:38;;;;;;;;;;;;;;;11.73;95.89;98094.03;3456956;28;19973;-51
2021/05/18 01:56:33;;;;;;;;;;;;;;;11.71;95.94;98086.28;3455620;28;19944;-48
2021/05/18 01:58:15;;;;;;;;;;;;;;;11.70;95.98;98084.56;3455555;28;20107;-48
2021/05/18 01:59:56;;;;;;;;;;;;;;;11.69;96.09;98089.75;3456438;28;19929;-49
2021/05/18 02:01:38;;;;;;;;;;;;;;;11.69;95.70;98089.75;3455510;28;19936;-48
2021/05/18 02:03:19;;;;;;;;;;;;;;;11.64;95.78;98082.03;3456690;28;20399;-49
2021/05/18 02:05:03;;;;;;;;;;;;;;;11.65;95.87;98088.97;3455558;28;19930;-48
2021/05/18 02:06:44;;;;;;;;;;;;;;;11.63;95.82;98080.34;3456009;28;19975;-48
2021/05/18 02:08:26;;;;;;;;;;;;;;;11.62;95.81;98084.69;3456073;28;20464;-49
2021/05/18 02:10:09;;;;;;;;;;;;;;;11.60;95.66;98086.44;3455801;28;19930;-48
2021/05/18 02:11:51;;;;;;;;;;;;;;;11.58;95.52;98077.81;3456447;28;19985;-49
2021/05/18 02:13:32;;;;;;;;;;;;;;;11.57;95.48;98080.44;3455582;28;19929;-48
2021/05/18 02:15:24;;;;;;;;;;;;;;;11.55;95.41;98077.00;3457019;28;19976;-48
2021/05/18 02:17:12;;;;;;;;;;;;;;;11.54;95.64;98076.16;3456470;28;20370;-48
2021/05/18 02:19:14;;;;;;;;;;;;;;;11.54;95.60;98076.16;3455880;28;20389;-42
2021/05/18 02:21:07;;;;;;;;;;;;;;;11.53;95.52;98076.16;3456459;28;19930;-43
2021/05/18 02:25:00;;;;;;;;;;;;;;;11.53;95.64;98074.41;3457307;28;19929;-43
2021/05/18 02:26:42;;;;;;;;;;;;;;;11.54;95.69;98070.09;3456667;28;19972;-50
2021/05/18 02:28:23;;;;;;;;;;;;;;;11.54;95.43;98065.75;3455523;28;19984;-43
2021/05/18 02:30:06;;;;;;;;;;;;;;;11.55;95.62;98071.81;3456633;28;19936;-43
2021/05/18 02:31:49;;;;;;;;;;;;;;;11.57;95.70;98067.44;3456537;28;19972;-43
2021/05/18 02:33:30;;;;;;;;;;;;;;;11.58;95.68;98072.63;3456169;28;19936;-42
2021/05/18 02:35:12;;;;;;;;;;;;;;;11.59;95.89;98066.53;3455620;28;19988;-42
2021/05/18 02:36:53;;;;;;;;;;;;;;;11.61;95.73;98072.56;3455388;28;19989;-43
2021/05/18 02:38:34;;;;;;;;;;;;;;;11.62;95.86;98079.50;3456178;28;19929;-42
2021/05/18 02:40:18;;;;;;;;;;;;;;;11.65;95.75;98082.91;3455598;28;19929;-48
2021/05/18 02:42:02;;;;;;;;;;;;;;;11.66;95.67;98088.09;3456954;28;19929;-43
2021/05/18 02:43:46;;;;;;;;;;;;;;;11.67;95.54;98092.38;3455081;28;19949;-43
2021/05/18 02:45:31;;;;;;;;;;;;;;;11.69;95.63;98093.22;3455424;28;20395;-42
2021/05/18 02:49:14;;;;;;;;;;;;;;;11.76;95.54;98093.97;3456381;28;19929;-42
2021/05/18 02:50:55;;;;;;;;;;;;;;;11.80;95.67;98086.13;3456197;28;20488;-43
2021/05/18 02:52:38;;;;;;;;;;;;;;;11.84;95.81;98086.91;3455076;28;19968;-43
2021/05/18 02:54:23;;;;;;;;;;;;;;;11.90;95.94;98092.00;3456971;28;20432;-42
2021/05/18 02:56:10;;;;;;;;;;;;;;;11.96;95.95;98091.91;3455708;28;20403;-43
2021/05/18 02:57:52;;;;;;;;;;;;;;;12.03;96.07;98087.47;3455032;28;19933;-42
2021/05/18 02:59:33;;;;;;;;;;;;;;;12.06;95.86;98086.53;3456467;28;19936;-52
2021/05/18 03:01:15;;;;;;;;;;;;;;;12.12;95.71;98091.66;3456309;28;19929;-51
2021/05/18 03:02:56;;;;;;;;;;;;;;;12.18;95.62;98091.50;3456022;28;19972;-44
2021/05/18 03:04:37;;;;;;;;;;;;;;;12.21;95.22;98094.06;3453685;28;19969;-42
2021/05/18 03:06:18;;;;;;;;;;;;;;;12.28;95.44;98102.63;3456523;28;19991;-43
2021/05/18 03:08:00;;;;;;;;;;;;;;;12.33;95.33;98104.25;3455812;28;20318;-51
2021/05/18 03:09:41;;;;;;;;;;;;;;;12.36;95.16;98099.00;3455564;28;19969;-43
2021/05/18 03:11:23;;;;;;;;;;;;;;;12.41;95.09;98105.84;3456134;28;19933;-49
2021/05/18 03:13:04;;;;;;;;;;;;;;;12.46;95.33;98102.25;3453394;28;19941;-49
2021/05/18 03:14:46;;;;;;;;;;;;;;;12.51;95.08;98096.97;3455914;28;20413;-52
2021/05/18 03:16:27;;;;;;;;;;;;;;;12.54;94.85;98099.50;3455165;28;19993;-50
2021/05/18 03:18:08;;;;;;;;;;;;;;;12.58;94.83;98095.97;3453907;28;19930;-49
2021/05/18 03:19:49;;;;;;;;;;;;;;;12.64;95.28;98094.97;3455451;28;19930;-50
2021/05/18 03:21:30;;;;;;;;;;;;;;;12.68;95.16;98094.91;3454799;28;19972;-49
2021/05/18 03:23:12;;;;;;;;;;;;;;;12.71;95.21;98097.41;3455758;28;20020;-44
2021/05/18 03:24:53;;;;;;;;;;;;;;;12.76;95.67;98099.94;3455063;28;19940;-43
2021/05/18 03:26:35;;;;;;;;;;;;;;;12.80;95.57;98098.13;3455885;28;19936;-43
2021/05/18 03:28:16;;;;;;;;;;;;;;;12.83;95.78;98101.53;3454618;28;20410;-43
2021/05/18 03:29:59;;;;;;;;;;;;;;;12.86;96.09;98093.66;3455002;28;20023;-43
2021/05/18 03:35:41;;;;;;;;;;;;;;;12.91;96.05;98106.59;3456490;28;19967;-51
2021/05/18 03:37:24;;;;;;;;;;;;;;;12.91;95.95;98114.41;3455421;28;19980;-51
2021/05/18 03:39:06;;;;;;;;;;;;;;;12.91;95.80;98123.09;3455289;28;19933;-49
2021/05/18 03:40:52;;;;;;;;;;;;;;;12.94;95.89;98122.16;3455832;28;19929;-49
2021/05/18 03:42:36;;;;;;;;;;;;;;;12.95;96.08;98108.25;3454635;28;20027;-52
2021/05/18 03:44:25;;;;;;;;;;;;;;;12.97;96.31;98109.06;3455684;28;19936;-49
2021/05/18 03:54:21;;;;;;;;;;;;;;;13.12;97.83;98113.97;3406849;28;19946;-52
2021/05/18 04:04:24;;;;;;;;;;;;;;;13.28;96.91;98111.00;3401121;29;19977;-52
2021/05/18 04:10:13;;;;;;;;;;;;;;;13.37;95.85;98116.03;3454283;28;19929;-43
2021/05/18 04:12:12;;;;;;;;;;;;;;;13.41;95.73;98120.25;3455681;28;19987;-44
2021/05/18 04:17:59;;;;;;;;;;;;;;;13.58;95.25;98126.81;3454352;28;20306;-50
2021/05/18 04:19:44;;;;;;;;;;;;;;;13.63;95.26;98119.75;3455609;28;19936;-49
2021/05/18 04:21:37;;;;;;;;;;;;;;;13.65;94.98;98121.44;3456097;28;19979;-49
2021/05/18 04:23:41;;;;;;;;;;;;;;;13.69;94.54;98115.25;3455018;28;19980;-44
2021/05/18 04:25:54;;;;;;;;;;;;;;;13.74;94.05;98124.69;3455169;28;20402;-43
2021/05/18 04:49:58;;;;;;;;;;;;;;;14.16;93.72;98130.59;3455218;28;19929;-49
2021/05/18 04:51:42;;;;;;;;;;;;;;;14.18;94.02;98136.66;3454174;28;19930;-48
2021/05/18 04:53:30;;;;;;;;;;;;;;;14.18;94.14;98131.44;3454219;28;19968;-48
2021/05/18 04:59:14;;;;;;;;;;;;;;;14.20;93.82;98136.59;3454209;28;19979;-43
2021/05/18 05:00:59;;;;;;;;;;;;;;;14.22;93.79;98124.41;3455138;28;19930;-44
2021/05/18 05:03:00;;;;;;;;;;;;;;;14.25;93.78;98133.00;3454161;28;19929;-50
2021/05/18 05:06:51;;;;;;;;;;;;;;;14.27;94.05;98135.53;3454920;28;19937;-44
2021/05/18 05:08:41;;;;;;;;;;;;;;;14.30;93.75;98126.78;3453871;28;20309;-43
2021/05/18 05:12:15;;;;;;;;;;;;;;;14.33;93.86;98131.97;3455257;28;20302;-43
2021/05/18 05:12:50;;;;;;;;;;;;;;;14.35;93.87;98130.16;3453877;28;19933;-44
2021/05/18 05:14:31;;;;;;;;;;;;;;;14.39;93.75;98131.78;3452527;28;19980;-49
2021/05/18 05:16:12;;;;;;;;;;;;;;;14.43;93.89;98131.69;3454795;28;20514;-50
2021/05/18 05:17:54;;;;;;;;;;;;;;;14.48;93.77;98121.09;3455115;28;19929;-49
2021/05/18 05:19:35;;;;;;;;;;;;;;;14.55;93.49;98117.41;3454600;28;20003;-50
2021/05/18 05:21:19;;;;;;;;;;;;;;;14.60;93.49;98110.31;3453549;28;20381;-49
2021/05/18 05:23:00;;;;;;;;;;;;;;;14.67;93.10;98111.00;3455438;28;20390;-44
2021/05/18 05:24:44;;;;;;;;;;;;;;;14.72;93.53;98111.75;3454939;28;19933;-43
2021/05/18 05:26:25;;;;;;;;;;;;;;;14.79;93.21;98107.22;3454089;28;19964;-43
2021/05/18 05:28:06;;;;;;;;;;;;;;;14.86;93.28;98108.75;3457273;28;19929;-53
2021/05/18 05:29:48;;;;;;;;;;;;;;;14.93;93.28;98096.38;3456772;28;20187;-43
2021/05/18 05:31:30;;;;;;;;;;;;;;;15.00;93.26;98103.13;3456756;28;19969;-43
2021/05/18 05:33:11;;;;;;;;;;;;;;;15.03;92.21;98103.88;3456519;28;19972;-43
2021/05/18 05:34:52;;;;;;;;;;;;;;;15.07;92.48;98099.44;3457408;28;20092;-43
2021/05/18 05:36:33;;;;;;;;;;;;;;;15.14;92.35;98106.19;3457495;28;20449;-43
2021/05/18 05:38:17;;;;;;;;;;;;;;;15.13;91.31;98107.06;3457528;28;20399;-49
2021/05/18 05:40:05;;;;;;;;;;;;;;;15.16;91.78;98101.75;3457251;28;19929;-49
2021/05/18 05:41:47;;;;;;;;;;;;;;;15.22;92.12;98098.97;3455688;28;19984;-51
2021/05/18 05:43:28;;;;;;;;;;;;;;;15.30;92.19;98097.88;3456169;28;20022;-52
2021/05/18 05:45:10;;;;;;;;;;;;;;;15.38;91.73;98107.19;3456508;28;19936;-49
2021/05/18 05:46:52;;;;;;;;;;;;;;;15.46;91.01;98111.31;3457336;28;20012;-50
2021/05/18 05:48:32;;;;;;;;;;;;;;;15.53;90.74;98116.28;3457111;28;19961;-48
2021/05/18 05:50:14;;;;;;;;;;;;;;;15.56;90.00;98108.38;3457102;28;20529;-52
2021/05/18 05:51:55;;;;;;;;;;;;;;;15.58;89.38;98109.19;3456839;28;19929;-48
2021/05/18 05:53:36;;;;;;;;;;;;;;;15.59;89.25;98107.44;3455620;28;19930;-50
2021/05/18 05:55:17;;;;;;;;;;;;;;;15.66;89.94;98108.94;3456224;28;19936;-50
2021/05/18 05:56:58;;;;;;;;;;;;;;;15.75;90.01;98105.19;3456836;28;19983;-49
2021/05/18 05:58:39;;;;;;;;;;;;;;;15.83;89.67;98104.94;3457347;28;19929;-49
2021/05/18 06:00:21;;;;;;;;;;;;;;;15.89;89.71;98108.19;3457029;28;19937;-44
2021/05/18 06:02:04;;;;;;;;;;;;;;;15.95;89.70;98099.31;3455585;28;20405;-49
2021/05/18 06:03:45;;;;;;;;;;;;;;;16.00;88.66;98101.75;3456975;28;20315;-44
2021/05/18 06:05:26;;;;;;;;;;;;;;;16.04;88.00;98109.47;3457094;28;19972;-44
2021/05/18 06:07:07;;;;;;;;;;;;;;;16.10;88.19;98114.47;3456237;28;19929;-43
2021/05/18 06:08:49;;;;;;;;;;;;;;;16.12;87.27;98101.34;3456035;28;19929;-45
2021/05/18 06:10:32;;;;;;;;;;;;;;;16.13;87.63;98097.84;3455873;28;19940;-43
2021/05/18 06:12:26;;;;;;;;;;;;;;;16.18;87.25;98103.75;3455587;28;19930;-43
2021/05/18 06:14:17;;;;;;;;;;;;;;;16.25;87.12;98099.19;3454686;28;19929;-43
2021/05/18 06:29:26;;;;;;;;;;;;;;;16.43;87.26;98093.28;3452671;28;19992;-43
2021/05/18 06:34:37;;;;;;;;;;;;;;;17.35;85.33;98094.25;3442125;28;20273;-44
2021/05/18 06:42:38;;;;;;;;;;;;;;;17.77;84.50;98095.25;3416862;28;19973;-44
2021/05/18 06:46:23;;;;;;;;;;;;;;;17.87;82.00;98099.19;3455463;28;19996;-44
2021/05/18 06:48:04;;;;;;;;;;;;;;;17.92;81.56;98093.78;3456464;28;19963;-44
2021/05/18 06:49:55;;;;;;;;;;;;;;;18.00;81.68;98087.28;3454723;28;19968;-43
2021/05/18 06:51:36;;;;;;;;;;;;;;;18.10;81.82;98094.78;3457309;28;20433;-43
2021/05/18 06:53:17;;;;;;;;;;;;;;;18.15;81.44;98085.78;3455506;28;19930;-48
2021/05/18 06:54:58;;;;;;;;;;;;;;;18.20;80.93;98082.97;3454049;28;20395;-47
2021/05/18 06:56:55;;;;;;;;;;;;;;;18.23;79.19;98077.59;3442864;28;20068;-47
2021/05/18 07:00:37;;;;;;;;;;;;;;;18.30;80.11;98079.03;3455408;28;19929;-44
2021/05/18 07:02:18;;;;;;;;;;;;;;;18.41;79.34;98073.31;3455922;28;19936;-44
2021/05/18 07:04:03;;;;;;;;;;;;;;;18.50;78.14;98074.69;3454920;28;20390;-44
2021/05/18 07:05:51;;;;;;;;;;;;;;;18.62;78.05;98066.25;3456081;28;20395;-44
2021/05/18 07:07:33;;;;;;;;;;;;;;;18.76;77.91;98073.53;3454994;28;20319;-44
2021/05/18 07:09:15;;;;;;;;;;;;;;;18.81;77.44;98072.38;3455830;28;19983;-44
2021/05/18 07:10:56;;;;;;;;;;;;;;;18.88;77.84;98069.53;3455161;28;19964;-45
2021/05/18 07:12:38;;;;;;;;;;;;;;;19.01;78.21;98073.28;3455536;28;20015;-47
2021/05/18 07:14:19;;;;;;;;;;;;;;;19.12;76.98;98076.25;3454160;28;20422;-47
2021/05/18 07:16:00;;;;;;;;;;;;;;;19.25;78.20;98070.41;3454686;28;19936;-47
2021/05/18 07:17:41;;;;;;;;;;;;;;;19.31;76.91;98064.88;3456411;28;20556;-46
2021/05/18 07:19:30;;;;;;;;;;;;;;;19.38;76.47;98068.91;3455018;28;19936;-47
2021/05/18 07:21:11;;;;;;;;;;;;;;;19.44;76.05;98071.25;3455446;28;19929;-47
2021/05/18 07:22:55;;;;;;;;;;;;;;;19.48;75.38;98071.97;3455303;28;19956;-46
2021/05/18 07:24:36;;;;;;;;;;;;;;;19.52;74.85;98069.09;3456753;28;19987;-44
2021/05/18 07:26:17;;;;;;;;;;;;;;;19.55;74.20;98070.75;3456046;28;19929;-48
2021/05/18 07:27:59;;;;;;;;;;;;;;;19.60;75.12;98073.13;3456241;28;19930;-44
2021/05/18 07:29:40;;;;;;;;;;;;;;;19.65;75.43;98076.38;3456371;28;19930;-46
2021/05/18 07:31:21;;;;;;;;;;;;;;;19.71;74.50;98079.56;3454517;28;19984;-44
2021/05/18 07:33:03;;;;;;;;;;;;;;;19.75;73.92;98082.91;3455385;28;19956;-45
2021/05/18 07:34:44;;;;;;;;;;;;;;;19.75;72.70;98073.22;3454962;28;19930;-44
2021/05/18 07:36:26;;;;;;;;;;;;;;;19.73;74.08;98080.34;3456629;28;20423;-47
2021/05/18 07:38:06;;;;;;;;;;;;;;;19.71;73.96;98078.72;3455456;28;19934;-47
2021/05/18 07:39:48;;;;;;;;;;;;;;;19.72;73.52;98077.78;3454944;28;20361;-48
2021/05/18 07:41:31;;;;;;;;;;;;;;;19.67;73.41;98077.16;3455975;28;19975;-47
2021/05/18 07:43:16;;;;;;;;;;;;;;;19.61;74.22;98074.84;3454489;28;19938;-47
2021/05/18 07:44:57;;;;;;;;;;;;;;;19.57;74.85;98074.16;3456755;28;19983;-47
2021/05/18 07:46:41;;;;;;;;;;;;;;;19.53;74.33;98076.06;3455300;28;19995;-50
2021/05/18 07:48:26;;;;;;;;;;;;;;;19.51;73.74;98077.94;3455223;28;19934;-45
2021/05/18 07:50:12;;;;;;;;;;;;;;;19.49;74.20;98076.28;3454410;28;19952;-45
2021/05/18 08:00:06;;;;;;;;;;;;;;;19.12;72.75;98083.28;3454975;28;20418;-45
2021/05/18 08:05:47;;;;;;;;;;;;;;;18.93;74.57;98081.53;3455186;28;20349;-48
2021/05/18 08:07:30;;;;;;;;;;;;;;;18.90;73.90;98088.69;3454997;28;19937;-47
2021/05/18 08:09:11;;;;;;;;;;;;;;;18.88;74.44;98088.75;3454797;28;19965;-45
2021/05/18 08:10:59;;;;;;;;;;;;;;;18.87;74.44;98089.66;3456024;28;19934;-46
2021/05/18 08:12:40;;;;;;;;;;;;;;;18.90;74.57;98091.31;3454548;28;19940;-47
2021/05/18 08:14:23;;;;;;;;;;;;;;;18.92;74.75;98086.84;3454120;28;19934;-48
2021/05/18 08:18:14;;;;;;;;;;;;;;;18.96;75.27;98086.63;3454644;28;20035;-47
2021/05/18 08:20:23;;;;;;;;;;;;;;;18.91;75.29;98083.38;3454852;28;19929;-47
2021/05/18 10:35:38;;;;;;;;;;;;;;;18.22;77.83;97999.75;3455688;28;20362;-50
2021/05/18 10:37:22;;;;;;;;;;;;;;;18.15;79.16;97999.16;3456568;28;19983;-48
2021/05/18 10:39:13;;;;;;;;;;;;;;;18.12;78.47;98003.69;3456102;28;20524;-46
2021/05/18 10:41:08;;;;;;;;;;;;;;;18.08;78.85;97999.53;3455373;28;20128;-45
2021/05/18 10:43:09;;;;;;;;;;;;;;;18.02;78.87;97996.25;3455727;28;19930;-44
2021/05/18 10:44:53;;;;;;;;;;;;;;;17.95;78.45;97989.56;3456161;28;19929;-43
2021/05/18 10:46:46;;;;;;;;;;;;;;;17.90;78.80;97990.69;3455743;28;19973;-47
2021/05/18 10:48:53;;;;;;;;;;;;;;;17.84;79.55;97987.41;3456598;28;19972;-43
2021/05/18 10:50:43;;;;;;;;;;;;;;;17.79;79.83;97985.88;3456412;28;19933;-45
2021/05/18 10:52:35;;;;;;;;;;;;;;;17.75;80.51;97982.53;3455136;28;19929;-44
2021/05/18 10:54:24;;;;;;;;;;;;;;;17.71;80.75;97991.41;3456146;28;19984;-46
2021/05/18 10:56:05;;;;;;;;;;;;;;;17.69;81.09;97982.78;3455526;28;20306;-49
2021/05/18 10:57:46;;;;;;;;;;;;;;;17.67;81.65;97977.59;3455798;28;19984;-46
2021/05/18 10:59:28;;;;;;;;;;;;;;;17.63;81.93;97981.25;3455732;28;19985;-46
2021/05/18 11:01:09;;;;;;;;;;;;;;;17.62;82.03;97982.19;3456235;28;19996;-45
2021/05/18 11:02:51;;;;;;;;;;;;;;;17.60;82.33;97977.91;3456449;28;19929;-44
2021/05/18 11:04:32;;;;;;;;;;;;;;;17.56;82.29;97974.56;3455103;28;19976;-44
2021/05/18 11:06:14;;;;;;;;;;;;;;;17.55;82.41;97972.84;3456756;28;19968;-52
2021/05/18 11:07:55;;;;;;;;;;;;;;;17.54;82.01;97975.56;3454823;28;19929;-52
2021/05/18 11:09:37;;;;;;;;;;;;;;;17.51;81.51;97960.81;3456703;28;19965;-54
2021/05/18 11:11:26;;;;;;;;;;;;;;;17.51;82.14;97958.19;3456036;28;19929;-46
2021/05/18 11:13:09;;;;;;;;;;;;;;;17.49;82.34;97952.16;3454723;28;19934;-52
2021/05/18 11:14:51;;;;;;;;;;;;;;;17.48;82.79;97955.69;3456005;28;19979;-54
2021/05/18 11:16:32;;;;;;;;;;;;;;;17.46;82.12;97960.13;3454903;28;20341;-47
2021/05/18 11:18:13;;;;;;;;;;;;;;;17.44;82.46;97964.59;3455633;28;20333;-53
2021/05/18 11:20:01;;;;;;;;;;;;;;;17.43;82.53;97968.13;3455264;28;20034;-51
2021/05/18 11:21:55;;;;;;;;;;;;;;;17.42;82.86;97961.19;3454953;28;19944;-47
2021/05/18 11:23:35;;;;;;;;;;;;;;;17.42;82.89;97963.81;3456124;28;19961;-53
2021/05/18 11:25:24;;;;;;;;;;;;;;;17.42;83.05;97961.19;3454280;28;19940;-46
2021/05/18 11:27:06;;;;;;;;;;;;;;;17.43;83.15;97958.50;3456070;28;19936;-49
2021/05/18 11:28:49;;;;;;;;;;;;;;;17.43;83.23;97961.13;3455987;28;20306;-46
2021/05/18 11:30:29;;;;;;;;;;;;;;;17.43;83.80;97955.00;3452061;28;20116;-45
2021/05/18 11:32:11;;;;;;;;;;;;;;;17.44;83.91;97947.09;3445965;28;19933;-45
2021/05/18 11:33:54;;;;;;;;;;;;;;;17.45;83.98;97943.56;3456080;28;19929;-44
2021/05/18 11:35:35;;;;;;;;;;;;;;;17.45;84.14;97946.19;3455859;28;19984;-45
2021/05/18 11:37:17;;;;;;;;;;;;;;;17.45;84.59;97942.72;3454558;28;19936;-44
2021/05/18 11:39:01;;;;;;;;;;;;;;;17.43;84.11;97941.91;3455351;28;20047;-44
2021/05/18 11:40:44;;;;;;;;;;;;;;;17.41;83.79;97938.50;3454914;28;19933;-46
2021/05/18 11:42:26;;;;;;;;;;;;;;;17.41;83.87;97935.88;3454874;28;20390;-45
2021/05/18 11:44:08;;;;;;;;;;;;;;;17.41;84.29;97947.25;3454961;28;19929;-50
2021/05/18 11:45:50;;;;;;;;;;;;;;;17.41;84.06;97947.25;3455891;28;20391;-48
2021/05/18 11:47:31;;;;;;;;;;;;;;;17.41;83.85;97944.63;3456115;28;19930;-54
2021/05/18 11:49:13;;;;;;;;;;;;;;;17.39;84.09;97946.44;3454539;28;19940;-52
2021/05/18 11:51:02;;;;;;;;;;;;;;;17.37;83.94;97943.03;3456224;28;19969;-53
2021/05/18 11:52:44;;;;;;;;;;;;;;;17.36;83.92;97936.09;3454842;28;19933;-54
2021/05/18 11:54:27;;;;;;;;;;;;;;;17.34;84.42;97935.31;3455332;28;19965;-45
2021/05/18 11:56:16;;;;;;;;;;;;;;;17.33;83.54;97933.59;3454599;28;20023;-46
2021/05/18 11:57:57;;;;;;;;;;;;;;;17.30;83.73;97936.34;3455920;28;19929;-51
2021/05/18 11:59:38;;;;;;;;;;;;;;;17.28;83.21;97940.78;3456104;28;19929;-47
2021/05/18 12:01:20;;;;;;;;;;;;;;;17.28;83.42;97953.91;3454358;28;20714;-45
2021/05/18 12:03:02;;;;;;;;;;;;;;;17.26;82.72;97951.34;3454907;28;19992;-45
2021/05/18 12:04:43;;;;;;;;;;;;;;;17.26;82.92;97953.97;3455322;28;19933;-46
2021/05/18 12:06:24;;;;;;;;;;;;;;;17.26;83.14;97959.19;3454600;28;20473;-54
2021/05/18 12:08:23;;;;;;;;;;;;;;;17.27;83.33;97960.91;3455449;28;19930;-50
2021/05/18 12:10:32;;;;;;;;;;;;;;;17.29;83.23;97960.84;3454916;28;19929;-45
2021/05/18 12:12:14;;;;;;;;;;;;;;;17.32;83.48;97965.09;3454255;28;20429;-46
2021/05/18 12:13:56;;;;;;;;;;;;;;;17.37;83.38;97963.16;3452897;28;20429;-45
2021/05/18 12:15:37;;;;;;;;;;;;;;;17.42;83.30;97962.03;3454437;28;19956;-50
2021/05/18 12:17:23;;;;;;;;;;;;;;;17.46;83.27;97960.13;3455461;28;19929;-53
2021/05/18 12:19:05;;;;;;;;;;;;;;;17.46;82.18;97962.75;3455495;28;19929;-49
2021/05/18 12:20:46;;;;;;;;;;;;;;;17.44;82.39;97957.56;3456079;28;20003;-44
2021/05/18 12:22:27;;;;;;;;;;;;;;;17.44;82.22;97961.97;3454996;28;19936;-44
2021/05/18 12:24:11;;;;;;;;;;;;;;;17.44;82.63;97959.34;3455841;28;19937;-45
2021/05/18 12:25:52;;;;;;;;;;;;;;;17.45;82.40;97961.06;3454911;28;19929;-44
2021/05/18 12:27:42;;;;;;;;;;;;;;;17.46;82.50;97958.34;3444879;28;20220;-44
2021/05/18 12:29:31;;;;;;;;;;;;;;;17.50;82.52;97961.75;3453203;28;19961;-44
2021/05/18 12:31:24;;;;;;;;;;;;;;;17.53;82.18;97953.72;3453776;28;20414;-45
2021/05/18 12:33:05;;;;;;;;;;;;;;;17.57;82.24;97959.69;3454289;28;19934;-44
2021/05/18 12:34:48;;;;;;;;;;;;;;;17.62;82.34;97950.72;3455338;28;19972;-45
2021/05/18 12:36:29;;;;;;;;;;;;;;;17.66;82.73;97946.22;3454691;28;19980;-45
2021/05/18 12:38:15;;;;;;;;;;;;;;;17.70;82.71;97950.38;3457608;28;19952;-44
2021/05/18 12:39:57;;;;;;;;;;;;;;;17.73;82.85;97944.16;3455581;28;20398;-46
2021/05/18 12:41:47;;;;;;;;;;;;;;;17.75;82.44;97955.44;3456629;28;19977;-46
2021/05/18 12:43:37;;;;;;;;;;;;;;;17.76;82.68;97957.13;3456851;28;20011;-46
2021/05/18 12:45:20;;;;;;;;;;;;;;;17.80;83.53;97956.06;3457677;28;19930;-47
2021/05/18 12:47:03;;;;;;;;;;;;;;;17.80;83.47;97970.06;3457721;28;19929;-52
2021/05/18 12:48:47;;;;;;;;;;;;;;;17.82;83.69;97962.13;3457898;28;19968;-53
2021/05/18 12:50:36;;;;;;;;;;;;;;;17.84;83.74;97960.31;3457526;28;20023;-45
2021/05/18 12:52:17;;;;;;;;;;;;;;;17.88;83.66;97958.41;3456753;28;19929;-45
2021/05/18 12:54:02;;;;;;;;;;;;;;;17.93;83.37;97961.69;3457652;28;19984;-45
2021/05/18 12:55:44;;;;;;;;;;;;;;;18.01;84.42;97962.19;3457546;28;19937;-44
2021/05/18 12:57:27;;;;;;;;;;;;;;;18.15;85.10;97964.22;3456169;28;19964;-44
2021/05/18 12:59:09;;;;;;;;;;;;;;;18.24;83.85;97955.91;3457932;28;19937;-45
2021/05/18 13:00:50;;;;;;;;;;;;;;;18.35;83.44;97948.44;3456914;28;19965;-47
2021/05/18 13:02:36;;;;;;;;;;;;;;;18.42;83.22;97946.38;3456456;28;19930;-49
2021/05/18 13:04:19;;;;;;;;;;;;;;;18.48;83.38;97946.06;3456692;28;20460;-45